Time;durP1;ratioP1;P1;durP2;ratioP2;P2;SDS_P1;SDS_P2;PMS_P1;PMS_P2;Temp;Humidity;BMP_temperature;BMP_pressure;BME280_temperature;BME280_humidity;BME280_pressure;Samples;Min_cycle;Max_cycle;Signal;HPM_P1;HPM_P2
2024/04/18 00:02:03;;;;;;;5.25;1.70;;;;;;;7.22;100.00;101002.81;6821690;26;19998;-76
2024/04/18 00:05:07;;;;;;;2.72;1.50;;;;;;;7.19;100.00;100999.44;6821728;26;20347;-77
2024/04/18 00:08:07;;;;;;;5.47;1.95;;;;;;;7.11;100.00;101003.16;6821684;26;20034;-77
2024/04/18 00:11:10;;;;;;;11.98;2.15;;;;;;;7.16;100.00;101015.22;6821597;26;20059;-77
2024/04/18 00:14:10;;;;;;;2.78;1.70;;;;;;;7.12;100.00;101019.69;6821632;26;19994;-77
2024/04/18 00:17:16;;;;;;;4.13;1.88;;;;;;;7.16;100.00;101017.81;6821869;26;20006;-77
2024/04/18 00:20:20;;;;;;;2.97;2.13;;;;;;;7.04;100.00;101017.34;6821564;26;19994;-77
2024/04/18 00:23:20;;;;;;;5.97;2.17;;;;;;;6.94;100.00;101026.38;6821314;26;20338;-76
2024/04/18 00:26:23;;;;;;;5.43;1.98;;;;;;;6.96;100.00;101019.38;6821280;26;19998;-77
2024/04/18 00:29:24;;;;;;;2.35;1.73;;;;;;;6.95;100.00;101027.25;6821990;26;19998;-77
2024/04/18 00:32:29;;;;;;;6.13;1.98;;;;;;;6.91;100.00;101026.50;6821148;26;19994;-76
2024/04/18 00:35:32;;;;;;;5.32;2.17;;;;;;;6.89;100.00;101030.91;6820706;26;20006;-76
2024/04/18 00:38:33;;;;;;;8.35;2.10;;;;;;;6.82;100.00;101038.13;6821579;26;20046;-76
2024/04/18 00:41:36;;;;;;;3.03;2.17;;;;;;;6.82;100.00;101035.50;6821145;26;19994;-76
2024/04/18 00:44:39;;;;;;;3.70;2.10;;;;;;;6.75;100.00;101035.75;6820999;26;20262;-76
2024/04/18 00:47:42;;;;;;;2.28;1.58;;;;;;;6.79;100.00;101045.19;6820720;26;20001;-77
2024/04/18 00:50:46;;;;;;;3.78;2.00;;;;;;;6.72;100.00;101049.78;6820542;26;19994;-76
2024/04/18 00:53:49;;;;;;;3.00;2.13;;;;;;;6.55;100.00;101039.88;6820731;26;19990;-76
2024/04/18 00:56:50;;;;;;;4.43;2.17;;;;;;;6.60;100.00;101048.41;6821361;26;20054;-76
2024/04/18 00:59:54;;;;;;;3.38;1.73;;;;;;;6.60;100.00;101051.03;6820777;26;20247;-76
2024/04/18 01:02:59;;;;;;;2.63;1.90;;;;;;;6.53;100.00;101051.25;6820670;26;19994;-75
2024/04/18 01:06:00;;;;;;;3.65;1.77;;;;;;;6.47;100.00;101060.13;6821065;26;20038;-76
2024/04/18 01:09:03;;;;;;;2.97;1.73;;;;;;;6.46;100.00;101063.66;6820912;26;20362;-76
2024/04/18 01:12:07;;;;;;;3.22;1.90;;;;;;;6.35;100.00;101057.91;6820261;26;19996;-76
2024/04/18 01:15:08;;;;;;;8.07;2.20;;;;;;;6.34;100.00;101064.03;6820751;26;19997;-76
2024/04/18 01:18:13;;;;;;;2.75;2.03;;;;;;;6.31;100.00;101064.13;6820437;26;20035;-76
2024/04/18 01:21:16;;;;;;;2.63;1.85;;;;;;;6.25;100.00;101064.31;6820519;26;20425;-76
2024/04/18 01:24:18;;;;;;;4.32;2.00;;;;;;;6.19;100.00;101067.97;6820482;26;20273;-77
2024/04/18 01:27:23;;;;;;;3.55;2.05;;;;;;;6.15;100.00;101076.78;6820729;26;19998;-77
2024/04/18 01:30:24;;;;;;;2.13;1.50;;;;;;;6.07;100.00;101079.59;6820736;26;19998;-77
2024/04/18 01:33:27;;;;;;;2.60;2.05;;;;;;;6.09;100.00;101075.22;6820753;26;20056;-76
2024/04/18 01:36:27;;;;;;;2.30;1.83;;;;;;;6.02;100.00;101078.03;6820189;26;20266;-76
2024/04/18 01:39:30;;;;;;;3.80;2.22;;;;;;;6.01;100.00;101076.34;6820242;26;20062;-76
2024/04/18 01:42:33;;;;;;;2.47;2.08;;;;;;;5.92;100.00;101081.81;6820041;26;19994;-76
2024/04/18 01:45:36;;;;;;;5.78;1.90;;;;;;;6.01;100.00;101081.56;6820336;26;20005;-77
2024/04/18 01:48:40;;;;;;;2.90;2.03;;;;;;;5.96;100.00;101086.91;6818638;26;20058;-76
2024/04/18 01:51:41;;;;;;;3.10;2.08;;;;;;;5.95;100.00;101089.53;6819757;26;20088;-76
2024/04/18 01:54:44;;;;;;;5.90;2.20;;;;;;;5.94;100.00;101093.91;6820311;26;20288;-76
2024/04/18 01:57:47;;;;;;;3.42;2.22;;;;;;;5.87;100.00;101094.13;6820182;26;19994;-76
2024/04/18 02:00:50;;;;;;;3.53;2.30;;;;;;;5.79;100.00;101097.78;6820358;26;20005;-76
2024/04/18 02:03:51;;;;;;;6.00;2.28;;;;;;;5.74;100.00;101096.19;6819390;26;19994;-77
2024/04/18 02:06:54;;;;;;;8.88;2.75;;;;;;;5.76;100.00;101097.00;6819516;26;20058;-77
2024/04/18 02:09:54;;;;;;;4.22;1.90;;;;;;;5.76;100.00;101102.22;6819525;26;20244;-77
2024/04/18 02:13:00;;;;;;;6.30;2.30;;;;;;;5.74;100.00;101107.47;6819690;26;19994;-76
2024/04/18 02:16:00;;;;;;;4.15;2.30;;;;;;;5.63;100.00;101093.00;6819764;26;19994;-77
2024/04/18 02:19:03;;;;;;;4.20;2.33;;;;;;;5.72;100.00;101108.41;6780912;26;20092;-77
2024/04/18 02:22:04;;;;;;;5.00;2.58;;;;;;;5.65;100.00;101112.94;6773986;26;19991;-77
2024/04/18 02:25:09;;;;;;;3.63;2.25;;;;;;;5.57;100.00;101112.28;6774223;26;20318;-77
2024/04/18 02:28:12;;;;;;;4.53;2.10;;;;;;;5.52;100.00;101114.19;6773669;26;20007;-77
2024/04/18 02:31:15;;;;;;;4.65;2.13;;;;;;;5.53;100.00;101108.06;6773793;26;20603;-77
2024/04/18 02:34:18;;;;;;;3.88;2.15;;;;;;;5.45;100.00;101112.59;6734083;26;20264;-77
2024/04/18 02:37:19;;;;;;;2.83;1.88;;;;;;;5.48;100.00;101115.16;6729123;26;20228;-76
2024/04/18 02:40:22;;;;;;;3.30;1.85;;;;;;;5.50;100.00;101116.84;6728796;26;19999;-76
2024/04/18 02:43:25;;;;;;;3.63;2.10;;;;;;;5.45;100.00;101115.22;6728457;26;20003;-77
2024/04/18 02:46:28;;;;;;;4.30;2.33;;;;;;;5.44;100.00;101118.72;6729000;26;20414;-77
2024/04/18 02:49:28;;;;;;;4.15;2.13;;;;;;;5.42;100.00;101115.31;6728920;26;20011;-77
2024/04/18 02:52:31;;;;;;;3.78;1.80;;;;;;;5.31;100.00;101123.41;6729562;26;20326;-76
2024/04/18 02:55:32;;;;;;;6.85;2.08;;;;;;;5.30;100.00;101121.69;6728790;26;20000;-77
2024/04/18 02:58:37;;;;;;;3.28;2.20;;;;;;;5.28;100.00;101124.34;6729157;26;20417;-76
2024/04/18 03:01:38;;;;;;;3.75;2.03;;;;;;;5.26;100.00;101123.50;6733727;26;20056;-76
2024/04/18 03:04:41;;;;;;;3.30;2.03;;;;;;;5.23;100.00;101136.63;6733605;26;20245;-77
2024/04/18 03:07:41;;;;;;;3.72;2.33;;;;;;;5.31;100.00;101139.03;6732977;26;20436;-76
2024/04/18 03:10:50;;;;;;;3.90;2.20;;;;;;;5.30;100.00;101134.72;6734040;26;20003;-76
2024/04/18 03:13:53;;;;;;;3.00;1.95;;;;;;;5.23;100.00;101136.63;6732935;26;20007;-76
2024/04/18 03:16:56;;;;;;;4.10;2.15;;;;;;;5.17;100.00;101141.13;6732761;26;19996;-77
2024/04/18 03:19:56;;;;;;;3.83;2.05;;;;;;;5.14;100.00;101146.44;6733375;26;20060;-76
2024/04/18 03:23:00;;;;;;;3.70;2.00;;;;;;;5.16;100.00;101144.63;6733068;26;19995;-77
2024/04/18 03:26:00;;;;;;;3.75;2.00;;;;;;;5.11;100.00;101152.56;6732216;26;20007;-76
2024/04/18 03:29:06;;;;;;;4.18;2.17;;;;;;;5.09;100.00;101139.59;6732621;26;20399;-75
2024/04/18 03:32:09;;;;;;;5.47;2.30;;;;;;;5.06;100.00;101146.59;6732935;26;19991;-77
2024/04/18 03:35:09;;;;;;;3.35;2.30;;;;;;;5.06;100.00;101149.22;6732872;26;19995;-77
2024/04/18 03:38:12;;;;;;;3.65;2.15;;;;;;;5.04;100.00;101146.66;6732401;26;20583;-76
2024/04/18 03:41:15;;;;;;;4.70;2.53;;;;;;;5.11;100.00;101160.38;6732099;26;20287;-77
2024/04/18 03:44:20;;;;;;;4.65;2.33;;;;;;;5.10;100.00;101169.09;6732192;26;20002;-76
2024/04/18 03:47:23;;;;;;;3.35;1.80;;;;;;;5.11;100.00;101170.78;6732165;26;20271;-77
2024/04/18 03:50:27;;;;;;;9.00;2.70;;;;;;;5.08;100.00;101163.91;6732367;26;20003;-77
2024/04/18 03:53:27;;;;;;;4.25;2.83;;;;;;;5.10;100.00;101176.91;6732199;26;20392;-76
2024/04/18 03:56:30;;;;;;;6.18;2.30;;;;;;;5.04;100.00;101171.81;6784092;21;20079;-77
2024/04/18 03:59:33;;;;;;;4.80;2.47;;;;;;;5.07;100.00;101176.97;6776791;26;20055;-77
2024/04/18 04:02:36;;;;;;;3.65;2.13;;;;;;;5.04;100.00;101183.13;6776590;26;19991;-78
2024/04/18 04:05:39;;;;;;;3.22;2.25;;;;;;;4.94;100.00;101193.78;6776749;26;19995;-77
2024/04/18 04:08:40;;;;;;;8.88;2.42;;;;;;;4.93;100.00;101186.84;6776807;26;20240;-77
2024/04/18 04:11:43;;;;;;;6.25;2.55;;;;;;;4.88;100.00;101189.56;6775437;26;19998;-77
2024/04/18 04:14:48;;;;;;;3.25;2.35;;;;;;;4.84;100.00;101191.38;6776542;26;19995;-77
2024/04/18 04:17:49;;;;;;;6.22;2.53;;;;;;;4.87;100.00;101193.06;6776752;26;20005;-77
2024/04/18 04:20:52;;;;;;;5.25;3.25;;;;;;;4.88;100.00;101197.38;6776486;26;19998;-78
2024/04/18 04:23:55;;;;;;;4.75;2.80;;;;;;;4.85;100.00;101200.03;6776140;26;20367;-77
2024/04/18 04:26:58;;;;;;;5.32;2.88;;;;;;;4.85;100.00;101202.63;6776063;26;19994;-77
2024/04/18 04:30:01;;;;;;;6.40;2.50;;;;;;;4.84;100.00;101199.19;6776194;26;19997;-77
2024/04/18 04:33:05;;;;;;;7.60;3.33;;;;;;;4.88;100.00;101214.75;6776111;26;20280;-77
2024/04/18 04:36:06;;;;;;;8.50;3.65;;;;;;;4.84;100.00;101217.41;6776030;26;20018;-77
2024/04/18 04:39:09;;;;;;;5.82;3.10;;;;;;;4.74;100.00;101213.31;6776037;26;20006;-77
2024/04/18 04:42:12;;;;;;;5.43;2.83;;;;;;;4.76;100.00;101216.72;6776276;26;19991;-77
2024/04/18 04:45:15;;;;;;;8.43;3.55;;;;;;;4.82;100.00;101224.41;6775783;26;20367;-77
2024/04/18 04:48:18;;;;;;;5.88;3.53;;;;;;;4.88;100.00;101225.16;6775745;26;20375;-77
2024/04/18 04:51:19;;;;;;;4.68;2.83;;;;;;;4.83;100.00;101231.34;6775808;26;20005;-77
2024/04/18 04:54:22;;;;;;;6.65;3.10;;;;;;;4.88;100.00;101235.59;6775972;26;20030;-77
2024/04/18 04:57:25;;;;;;;5.80;3.45;;;;;;;4.90;100.00;101246.81;6775767;26;19991;-77
2024/04/18 05:00:28;;;;;;;6.57;3.35;;;;;;;4.94;100.00;101251.06;6775922;26;20032;-77
2024/04/18 05:03:31;;;;;;;4.97;3.15;;;;;;;4.98;100.00;101250.97;6775960;26;20039;-76
2024/04/18 05:06:31;;;;;;;9.40;4.40;;;;;;;5.05;100.00;101249.94;6775715;26;19991;-77
2024/04/18 05:09:34;;;;;;;6.78;3.97;;;;;;;5.12;100.00;101255.00;6775791;26;20006;-77
2024/04/18 05:12:37;;;;;;;6.47;3.72;;;;;;;5.13;100.00;101262.78;6775276;26;19991;-77
2024/04/18 05:15:40;;;;;;;7.03;3.45;;;;;;;5.17;100.00;101261.81;6775688;26;19990;-77
2024/04/18 05:18:43;;;;;;;12.57;5.07;;;;;;;5.25;100.00;101270.31;6775527;26;19995;-77
2024/04/18 05:21:46;;;;;;;10.40;4.65;;;;;;;5.34;100.00;101275.31;6774745;26;20051;-77
2024/04/18 05:24:47;;;;;;;10.55;5.05;;;;;;;5.48;100.00;101281.97;6775000;26;19995;-77
2024/04/18 05:28:03;;;;;;;10.35;5.30;;;;;;;5.52;100.00;101286.22;6775059;26;19994;-77
2024/04/18 05:31:07;;;;;;;15.43;5.63;;;;;;;5.60;100.00;101294.72;6774605;26;20054;-77
2024/04/18 05:34:10;;;;;;;13.07;5.90;;;;;;;5.60;100.00;101292.13;6774950;26;19999;-77
2024/04/18 05:37:13;;;;;;;11.07;5.70;;;;;;;5.63;100.00;101298.97;6774796;26;19998;-76
2024/04/18 05:40:16;;;;;;;10.50;5.60;;;;;;;5.64;100.00;101304.19;6775047;26;19995;-76
2024/04/18 05:43:19;;;;;;;11.68;6.03;;;;;;;5.71;100.00;101310.09;6774836;26;19991;-76
2024/04/18 05:46:25;;;;;;;11.85;5.53;;;;;;;5.73;100.00;101314.38;6774681;26;20006;-77
2024/04/18 05:49:28;;;;;;;16.20;6.97;;;;;;;5.83;100.00;101312.41;6774545;26;20036;-76
2024/04/18 05:52:31;;;;;;;12.45;6.78;;;;;;;5.87;100.00;101316.66;6774802;26;20024;-76
2024/04/18 05:55:34;;;;;;;12.57;6.80;;;;;;;5.95;100.00;101319.09;6774492;26;20055;-76
2024/04/18 05:58:38;;;;;;;13.35;7.10;;;;;;;5.98;100.00;101324.25;6774429;26;20305;-76
2024/04/18 06:01:44;;;;;;;13.45;7.20;;;;;;;6.06;100.00;101323.16;6774537;26;20255;-77
2024/04/18 06:04:47;;;;;;;16.08;6.45;;;;;;;6.08;100.00;101328.31;6774765;26;19990;-77
2024/04/18 06:07:50;;;;;;;14.43;7.75;;;;;;;6.10;100.00;101337.00;6774355;26;19995;-77
2024/04/18 06:10:54;;;;;;;15.00;6.68;;;;;;;6.18;100.00;101340.25;6774400;26;20252;-77
2024/04/18 06:13:57;;;;;;;15.40;6.93;;;;;;;6.28;100.00;101348.72;6774026;26;20026;-77
2024/04/18 06:17:02;;;;;;;18.63;7.15;;;;;;;6.28;100.00;101343.50;6774063;26;19991;-76
2024/04/18 06:20:06;;;;;;;12.13;7.07;;;;;;;6.27;100.00;101347.84;6774145;26;20375;-77
2024/04/18 06:23:09;;;;;;;13.77;7.13;;;;;;;6.38;100.00;101350.19;6773864;26;20248;-77
2024/04/18 06:26:12;;;;;;;19.83;7.82;;;;;;;6.31;100.00;101353.84;6773746;26;20007;-76
2024/04/18 06:29:15;;;;;;;15.70;7.45;;;;;;;6.38;100.00;101347.56;6774257;26;19995;-77
2024/04/18 06:32:21;;;;;;;17.67;8.38;;;;;;;6.43;100.00;101360.50;6773449;26;19994;-77
2024/04/18 06:35:24;;;;;;;14.73;7.25;;;;;;;6.38;100.00;101365.84;6777121;26;19991;-77
2024/04/18 06:38:27;;;;;;;15.45;6.85;;;;;;;6.46;100.00;101370.88;6778432;26;19991;-77
2024/04/18 06:41:30;;;;;;;17.73;8.27;;;;;;;6.58;100.00;101367.91;6777823;26;20029;-77
2024/04/18 06:44:33;;;;;;;14.23;7.70;;;;;;;6.62;100.00;101366.94;6778366;26;20355;-77
2024/04/18 06:47:38;;;;;;;17.48;8.18;;;;;;;6.72;100.00;101364.94;6777745;26;20364;-77
2024/04/18 06:50:42;;;;;;;16.17;8.57;;;;;;;6.77;100.00;101360.47;6777982;26;20059;-77
2024/04/18 06:53:45;;;;;;;15.73;7.70;;;;;;;6.79;100.00;101375.19;6777697;26;20084;-77
2024/04/18 06:56:48;;;;;;;19.52;7.90;;;;;;;6.88;100.00;101370.59;6777721;26;20423;-77
2024/04/18 06:59:52;;;;;;;17.88;8.68;;;;;;;6.92;100.00;101367.00;6777893;26;19995;-77
2024/04/18 07:02:57;;;;;;;15.15;8.00;;;;;;;7.01;100.00;101370.22;6777496;26;19995;-77
2024/04/18 07:06:01;;;;;;;19.70;8.15;;;;;;;7.09;100.00;101378.69;6777736;26;20577;-77
2024/04/18 07:09:04;;;;;;;15.77;8.05;;;;;;;7.10;100.00;101379.53;6777716;26;19990;-77
2024/04/18 07:12:08;;;;;;;14.05;6.55;;;;;;;7.18;100.00;101380.19;6777829;26;20110;-77
2024/04/18 07:15:11;;;;;;;17.52;7.70;;;;;;;7.13;100.00;101384.69;6777898;26;20059;-77
2024/04/18 07:18:17;;;;;;;15.82;6.35;;;;;;;7.20;100.00;101383.59;6777415;26;19997;-77
2024/04/18 07:21:20;;;;;;;14.05;6.35;;;;;;;7.32;100.00;101391.09;6777770;26;20112;-77
2024/04/18 07:24:26;;;;;;;11.65;6.40;;;;;;;7.30;100.00;101390.25;6777633;26;20322;-77
2024/04/18 07:27:29;;;;;;;19.88;7.93;;;;;;;7.26;100.00;101393.00;6777102;26;19995;-77
2024/04/18 07:30:32;;;;;;;17.45;6.78;;;;;;;7.33;100.00;101397.19;6777374;26;20005;-77
2024/04/18 07:33:37;;;;;;;13.13;6.05;;;;;;;7.40;100.00;101403.06;6777289;26;20009;-77
2024/04/18 07:36:40;;;;;;;23.42;6.40;;;;;;;7.41;100.00;101394.34;6777207;26;19995;-77
2024/04/18 07:39:43;;;;;;;15.68;6.20;;;;;;;7.44;100.00;101395.09;6777699;26;19999;-77
2024/04/18 07:42:49;;;;;;;14.82;6.65;;;;;;;7.51;100.00;101393.16;6777066;26;20006;-77
2024/04/18 07:45:52;;;;;;;13.55;6.57;;;;;;;7.58;100.00;101395.53;6775319;26;19994;-77
2024/04/18 07:48:57;;;;;;;12.85;5.70;;;;;;;7.55;100.00;101393.03;6777317;26;20001;-77
2024/04/18 07:52:00;;;;;;;13.55;6.00;;;;;;;7.68;100.00;101393.50;6777053;26;20006;-77
2024/04/18 07:55:03;;;;;;;10.10;5.43;;;;;;;7.68;100.00;101395.28;6776868;26;19987;-77
2024/04/18 07:58:06;;;;;;;11.30;4.50;;;;;;;7.81;100.00;101393.94;6776789;26;20035;-77
2024/04/18 08:01:11;;;;;;;13.63;5.00;;;;;;;8.00;100.00;101400.34;6776510;26;19991;-77
2024/04/18 08:04:17;;;;;;;7.57;4.55;;;;;;;8.13;100.00;101408.66;6776863;26;20002;-77
2024/04/18 08:07:20;;;;;;;9.60;4.45;;;;;;;8.11;100.00;101413.91;6776422;26;20006;-77
2024/04/18 08:10:23;;;;;;;12.23;4.68;;;;;;;8.12;100.00;101404.31;6776581;26;20072;-77
2024/04/18 08:13:26;;;;;;;7.78;4.60;;;;;;;8.03;100.00;101402.84;6776403;26;20428;-77
2024/04/18 08:16:29;;;;;;;13.23;4.68;;;;;;;8.03;100.00;101410.69;6776473;26;20258;-77
2024/04/18 08:19:34;;;;;;;12.23;5.20;;;;;;;8.21;100.00;101422.31;6776365;26;19991;-77
2024/04/18 08:22:37;;;;;;;8.93;4.70;;;;;;;8.33;100.00;101421.09;6776487;26;20375;-78
2024/04/18 08:25:42;;;;;;;7.53;4.18;;;;;;;8.51;100.00;101424.88;6776217;26;20320;-77
2024/04/18 08:28:45;;;;;;;8.40;3.50;;;;;;;8.59;100.00;101418.47;6776443;26;20038;-77
2024/04/18 08:31:48;;;;;;;13.77;4.75;;;;;;;8.68;100.00;101421.69;6775785;26;19990;-80
2024/04/18 08:34:53;;;;;;;7.45;3.72;;;;;;;8.87;100.00;101414.91;6776643;26;20005;-77
2024/04/18 08:37:56;;;;;;;9.50;4.75;;;;;;;9.01;100.00;101427.50;6776067;26;20422;-79
2024/04/18 08:41:09;;;;;;;6.95;3.85;;;;;;;9.26;100.00;101424.84;6776443;26;19999;-79
2024/04/18 08:44:14;;;;;;;7.55;3.42;;;;;;;9.38;100.00;101430.47;6776109;26;20006;-77
2024/04/18 08:47:19;;;;;;;9.23;3.67;;;;;;;9.44;100.00;101431.16;6775808;26;20370;-79
2024/04/18 08:50:25;;;;;;;5.93;2.85;;;;;;;9.48;100.00;101438.00;6776435;26;20262;-77
2024/04/18 08:53:28;;;;;;;8.48;2.78;;;;;;;9.47;100.00;101438.94;6775877;26;19991;-77
2024/04/18 08:56:34;;;;;;;6.88;3.10;;;;;;;9.38;100.00;101435.72;6775314;26;19999;-80
2024/04/18 08:59:37;;;;;;;7.95;2.65;;;;;;;9.48;100.00;101438.00;6775879;26;19995;-79
2024/04/18 09:02:41;;;;;;;4.93;2.33;;;;;;;9.55;100.00;101437.72;6776017;26;19997;-79
2024/04/18 09:05:47;;;;;;;5.80;1.95;;;;;;;9.80;100.00;101444.66;6775559;26;19995;-79
2024/04/18 09:08:51;;;;;;;9.77;2.53;;;;;;;9.72;99.02;101436.22;6776067;26;19995;-79
2024/04/18 09:11:54;;;;;;;3.70;2.08;;;;;;;9.59;100.00;101438.47;6775400;26;20003;-79
2024/04/18 09:14:57;;;;;;;4.68;2.10;;;;;;;9.52;100.00;101434.34;6775944;26;20081;-80
2024/04/18 09:18:04;;;;;;;3.72;1.95;;;;;;;9.55;98.33;101435.09;6775387;26;19997;-80
2024/04/18 09:21:12;;;;;;;2.83;1.63;;;;;;;9.66;99.33;101434.69;6776120;26;20006;-80
2024/04/18 09:24:15;;;;;;;3.90;2.00;;;;;;;9.90;99.47;101439.00;6776057;26;20058;-80
2024/04/18 09:27:18;;;;;;;3.35;1.60;;;;;;;10.14;92.88;101431.91;6775766;26;20228;-79
2024/04/18 09:30:22;;;;;;;3.35;1.83;;;;;;;10.25;94.01;101430.63;6775429;26;20370;-79
2024/04/18 09:33:26;;;;;;;3.67;1.80;;;;;;;10.12;95.18;101433.72;6775260;26;20252;-80
2024/04/18 09:36:32;;;;;;;4.40;1.92;;;;;;;10.14;99.02;101439.78;6775321;26;20249;-79
2024/04/18 09:39:36;;;;;;;2.33;1.63;;;;;;;10.19;96.54;101439.59;6775729;26;20259;-79
2024/04/18 09:42:48;;;;;;;7.13;2.38;;;;;;;10.23;96.64;101441.19;6774902;26;19997;-80
2024/04/18 09:46:02;;;;;;;4.93;2.53;;;;;;;10.25;94.50;101443.75;6775012;26;20359;-80
2024/04/18 09:49:05;;;;;;;3.42;2.00;;;;;;;10.44;94.49;101443.84;6774864;26;20036;-80
2024/04/18 09:52:11;;;;;;;2.13;1.73;;;;;;;10.54;91.48;101432.06;6774355;26;20419;-80
2024/04/18 09:55:16;;;;;;;4.28;2.00;;;;;;;10.78;83.95;101431.00;6798774;21;20091;-82
2024/04/18 09:58:20;;;;;;;5.28;2.17;;;;;;;10.73;87.35;101429.50;6775840;26;19991;-83
2024/04/18 10:01:24;;;;;;;5.50;2.30;;;;;;;10.59;89.59;101430.94;6775470;26;19991;-82
2024/04/18 10:04:27;;;;;;;2.33;1.80;;;;;;;10.75;89.00;101438.16;6775635;26;20055;-83
2024/04/18 10:07:35;;;;;;;5.30;2.17;;;;;;;10.74;83.99;101434.69;6775475;26;20002;-85
2024/04/18 10:10:39;;;;;;;6.47;2.05;;;;;;;10.84;82.81;101443.88;6775017;26;19999;-82
2024/04/18 10:13:43;;;;;;;4.93;2.47;;;;;;;10.69;85.30;101434.03;6775038;26;20010;-81
2024/04/18 10:16:49;;;;;;;3.17;2.42;;;;;;;10.62;85.78;101437.84;6775524;26;20391;-81
2024/04/18 10:19:53;;;;;;;4.10;2.40;;;;;;;10.50;89.17;101428.72;6775377;26;20005;-82
2024/04/18 10:23:05;;;;;;;2.88;2.28;;;;;;;10.55;90.55;101437.25;6775250;26;19999;-82
2024/04/18 10:26:15;;;;;;;7.75;3.55;;;;;;;10.82;87.83;101431.75;6775268;26;20006;-83
2024/04/18 10:29:26;;;;;;;5.90;2.42;;;;;;;10.93;87.15;101438.22;6775673;26;20001;-84
2024/04/18 10:32:30;;;;;;;4.15;2.83;;;;;;;11.15;88.04;101430.25;6775255;26;19991;-83
2024/04/18 10:35:33;;;;;;;3.90;2.55;;;;;;;10.99;92.39;101421.34;6775150;26;20422;-84
2024/04/18 10:38:44;;;;;;;4.43;2.83;;;;;;;11.18;89.74;101424.84;6774914;26;20001;-83
2024/04/18 10:41:47;;;;;;;6.07;2.15;;;;;;;11.37;86.11;101419.59;6774697;26;19995;-82
2024/04/18 10:44:51;;;;;;;7.05;1.65;;;;;;;11.69;80.52;101426.00;6775128;26;20263;-83
2024/04/18 10:47:55;;;;;;;4.50;1.50;;;;;;;11.81;79.40;101427.22;6775065;26;19990;-82
2024/04/18 10:50:59;;;;;;;3.97;1.35;;;;;;;11.68;78.69;101436.63;6774605;26;20248;-84
2024/04/18 10:54:11;;;;;;;2.92;1.30;;;;;;;11.55;83.50;101430.22;6775269;26;19994;-83
2024/04/18 10:57:14;;;;;;;3.08;1.08;;;;;;;11.48;77.24;101428.78;6775236;26;20396;-82
2024/04/18 11:00:18;;;;;;;3.97;1.30;;;;;;;11.72;78.92;101426.78;6775483;26;19995;-84
2024/04/18 11:03:21;;;;;;;2.17;1.25;;;;;;;11.83;69.49;101425.38;6774847;26;19995;-83
2024/04/18 11:06:24;;;;;;;9.60;1.10;;;;;;;12.13;72.26;101427.47;6775296;26;19995;-84
2024/04/18 11:09:31;;;;;;;2.72;1.27;;;;;;;12.30;76.82;101426.63;6775205;26;19995;-83
2024/04/18 11:12:34;;;;;;;1.00;0.82;;;;;;;12.39;77.68;101434.06;6775608;26;20010;-85
2024/04/18 11:15:38;;;;;;;1.95;1.08;;;;;;;12.21;77.72;101435.84;6775030;26;20375;-81
2024/04/18 11:18:41;;;;;;;3.35;0.63;;;;;;;11.91;79.86;101436.41;6774143;26;19991;-80
2024/04/18 11:21:44;;;;;;;1.15;0.70;;;;;;;11.71;79.84;101425.06;6777788;26;19994;-81
2024/04/18 11:24:49;;;;;;;3.42;0.80;;;;;;;11.63;78.14;101428.94;6778832;26;20031;-86
2024/04/18 11:27:53;;;;;;;4.05;1.10;;;;;;;11.72;79.20;101430.28;6781962;26;19991;-82
2024/04/18 11:30:56;;;;;;;2.35;0.80;;;;;;;11.73;79.51;101429.34;6782891;26;19999;-84
2024/04/18 11:33:59;;;;;;;3.42;0.85;;;;;;;11.69;76.39;101426.00;6783083;26;20312;-83
2024/04/18 11:37:04;;;;;;;1.52;0.88;;;;;;;11.68;79.56;101429.56;6779472;26;20006;-86
2024/04/18 11:40:11;;;;;;;2.17;1.00;;;;;;;11.66;79.66;101434.03;6779478;26;19990;-83
2024/04/18 11:43:15;;;;;;;1.65;0.82;;;;;;;11.70;78.24;101429.50;6778796;26;20098;-83
2024/04/18 11:46:18;;;;;;;1.00;0.70;;;;;;;11.56;80.28;101430.13;6778908;26;20374;-83
2024/04/18 11:49:21;;;;;;;1.35;0.77;;;;;;;11.62;82.15;101431.63;6779237;26;20044;-83
2024/04/18 11:52:24;;;;;;;3.10;1.45;;;;;;;11.87;89.03;101428.72;6779721;26;20005;-84
2024/04/18 11:55:30;;;;;;;3.83;0.88;;;;;;;12.10;82.63;101431.09;6780008;26;20374;-84
2024/04/18 11:58:33;;;;;;;2.63;0.88;;;;;;;12.35;81.32;101414.94;6786285;26;19991;-84
2024/04/18 12:01:36;;;;;;;3.85;0.85;;;;;;;12.54;76.45;101427.22;6797200;26;20104;-83
2024/04/18 12:04:39;;;;;;;3.42;0.77;;;;;;;12.73;72.62;101432.38;6787634;26;19991;-79
2024/04/18 12:07:42;;;;;;;4.32;0.70;;;;;;;12.69;67.58;101418.50;6779276;26;20036;-84
2024/04/18 12:10:48;;;;;;;2.97;0.90;;;;;;;12.44;67.98;101416.25;6779129;26;19991;-82
2024/04/18 12:13:51;;;;;;;5.35;1.35;;;;;;;12.51;70.03;101409.75;6778065;26;19994;-82
2024/04/18 12:16:54;;;;;;;2.50;1.05;;;;;;;12.47;72.13;101405.56;6777961;26;20005;-81
2024/04/18 12:19:57;;;;;;;1.65;0.77;;;;;;;13.16;72.58;101408.06;6778646;26;19995;-84
2024/04/18 12:23:00;;;;;;;0.70;0.70;;;;;;;13.65;64.30;101409.88;6778222;26;20001;-80
2024/04/18 12:26:06;;;;;;;2.85;0.45;;;;;;;13.26;60.49;101420.81;6778113;26;19999;-81
2024/04/18 12:29:09;;;;;;;0.93;0.70;;;;;;;13.19;60.52;101410.56;6779195;26;20009;-86
2024/04/18 12:32:12;;;;;;;0.60;0.60;;;;;;;13.17;63.48;101425.66;6777010;26;20060;-85
2024/04/18 12:35:16;;;;;;;1.90;1.00;;;;;;;13.90;66.49;101412.00;6778368;26;20407;-86
2024/04/18 12:38:18;;;;;;;5.78;0.80;;;;;;;14.24;56.07;101418.84;6777629;26;19994;-85
2024/04/18 12:41:24;;;;;;;2.05;0.47;;;;;;;14.22;55.15;101415.44;6777547;26;19998;-83
2024/04/18 12:44:27;;;;;;;2.38;0.80;;;;;;;14.11;55.99;101410.75;6777561;26;20062;-85
2024/04/18 12:47:30;;;;;;;6.53;0.93;;;;;;;14.11;60.59;101415.19;6777139;26;20051;-83
2024/04/18 12:50:34;;;;;;;4.35;0.80;;;;;;;14.63;57.45;101412.19;6777285;26;19995;-81
2024/04/18 12:53:37;;;;;;;4.57;0.82;;;;;;;14.92;54.51;101415.72;6776958;26;20005;-83
2024/04/18 12:56:47;;;;;;;2.00;0.70;;;;;;;14.96;54.05;101396.06;6776591;26;19995;-83
2024/04/18 12:59:50;;;;;;;3.70;0.70;;;;;;;14.74;54.63;101393.03;6777888;26;20035;-83
2024/04/18 13:02:53;;;;;;;1.50;0.68;;;;;;;15.06;51.98;101370.72;6776666;26;20398;-81
2024/04/18 13:05:56;;;;;;;2.60;0.70;;;;;;;15.61;53.34;101374.34;6777722;26;20002;-82
2024/04/18 13:08:59;;;;;;;1.08;0.57;;;;;;;15.82;46.63;101391.53;6776598;26;19994;-81
2024/04/18 13:12:05;;;;;;;3.15;0.80;;;;;;;14.96;47.10;101388.97;6776225;26;20005;-84
2024/04/18 13:15:08;;;;;;;3.92;0.82;;;;;;;14.94;50.24;101377.66;6776483;26;19998;-79
2024/04/18 13:18:11;;;;;;;1.13;0.75;;;;;;;15.33;51.39;101383.19;6776066;26;20508;-85
2024/04/18 13:21:14;;;;;;;2.97;0.55;;;;;;;15.52;47.48;101378.41;6776971;26;20002;-85
2024/04/18 13:24:19;;;;;;;1.08;0.50;;;;;;;15.30;46.88;101388.66;6777213;26;20578;-85
2024/04/18 13:27:24;;;;;;;6.28;1.80;;;;;;;15.71;47.29;101362.22;6776370;26;20370;-79
2024/04/18 13:30:28;;;;;;;3.63;0.80;;;;;;;15.38;48.41;101360.75;6776369;26;20076;-84
2024/04/18 13:33:31;;;;;;;2.90;0.80;;;;;;;14.63;50.77;101378.66;6776145;26;19990;-84
2024/04/18 13:36:34;;;;;;;1.33;1.17;;;;;;;14.14;52.29;101363.03;6776906;26;19995;-83
2024/04/18 13:39:43;;;;;;;1.02;0.60;;;;;;;13.91;51.31;101363.50;6775769;26;20308;-82
2024/04/18 13:42:48;;;;;;;0.70;0.70;;;;;;;13.82;50.59;101359.59;6775534;26;20545;-82
2024/04/18 13:45:51;;;;;;;1.90;0.60;;;;;;;13.70;49.94;101360.28;6775785;26;20006;-83
2024/04/18 13:48:54;;;;;;;2.28;0.50;;;;;;;14.38;49.06;101360.72;6776248;26;20055;-84
2024/04/18 13:51:57;;;;;;;0.63;0.50;;;;;;;14.80;46.60;101355.59;6775938;26;19987;-82
2024/04/18 13:55:00;;;;;;;0.55;0.50;;;;;;;14.34;49.78;101353.91;6775463;26;20292;-81
2024/04/18 13:58:06;;;;;;;3.47;1.00;;;;;;;14.68;50.24;101357.22;6775423;26;20266;-83
2024/04/18 14:01:09;;;;;;;1.00;0.63;;;;;;;15.12;44.82;101349.16;6775641;26;19995;-87
2024/04/18 14:04:12;;;;;;;4.35;0.80;;;;;;;15.30;44.24;101335.72;6775786;26;20005;-84
2024/04/18 14:07:15;;;;;;;3.88;1.00;;;;;;;14.92;47.54;101345.13;6775651;26;19995;-85
2024/04/18 14:10:19;;;;;;;0.80;0.52;;;;;;;14.46;48.17;101357.63;6775659;26;20006;-84
2024/04/18 14:13:24;;;;;;;1.95;0.60;;;;;;;14.22;47.86;101344.06;6774830;26;20363;-82